sensor_id;sensor_type;location;lat;lon;timestamp;P1;durP1;ratioP1;P2;durP2;ratioP2
45887;SDS011;31595;51.418;7.572;2023-04-15T00:00:23;12.25;;;7.68;;
45887;SDS011;31595;51.418;7.572;2023-04-15T00:02:50;12.65;;;8.50;;
45887;SDS011;31595;51.418;7.572;2023-04-15T00:05:19;10.70;;;8.15;;
45887;SDS011;31595;51.418;7.572;2023-04-15T00:07:50;11.68;;;8.55;;
45887;SDS011;31595;51.418;7.572;2023-04-15T00:10:18;11.85;;;8.73;;
45887;SDS011;31595;51.418;7.572;2023-04-15T00:12:48;10.95;;;8.10;;
45887;SDS011;31595;51.418;7.572;2023-04-15T00:15:18;13.13;;;8.70;;
45887;SDS011;31595;51.418;7.572;2023-04-15T00:17:48;10.15;;;7.85;;
45887;SDS011;31595;51.418;7.572;2023-04-15T00:20:16;11.32;;;6.93;;
45887;SDS011;31595;51.418;7.572;2023-04-15T00:22:45;10.98;;;7.70;;
45887;SDS011;31595;51.418;7.572;2023-04-15T00:25:15;13.25;;;8.85;;
45887;SDS011;31595;51.418;7.572;2023-04-15T00:27:48;12.82;;;8.48;;
45887;SDS011;31595;51.418;7.572;2023-04-15T00:30:18;10.73;;;8.55;;
45887;SDS011;31595;51.418;7.572;2023-04-15T00:32:48;13.07;;;9.20;;
45887;SDS011;31595;51.418;7.572;2023-04-15T00:35:21;11.70;;;7.57;;
45887;SDS011;31595;51.418;7.572;2023-04-15T00:37:58;11.80;;;8.15;;
45887;SDS011;31595;51.418;7.572;2023-04-15T00:40:37;10.63;;;7.80;;
45887;SDS011;31595;51.418;7.572;2023-04-15T00:43:06;11.77;;;7.83;;
45887;SDS011;31595;51.418;7.572;2023-04-15T00:45:33;10.18;;;7.50;;
45887;SDS011;31595;51.418;7.572;2023-04-15T00:48:04;9.57;;;7.47;;
45887;SDS011;31595;51.418;7.572;2023-04-15T00:50:46;10.25;;;7.57;;
45887;SDS011;31595;51.418;7.572;2023-04-15T00:53:27;11.63;;;8.60;;
45887;SDS011;31595;51.418;7.572;2023-04-15T00:56:03;12.45;;;8.35;;
45887;SDS011;31595;51.418;7.572;2023-04-15T00:58:34;11.43;;;9.13;;
45887;SDS011;31595;51.418;7.572;2023-04-15T01:01:05;17.83;;;9.52;;
45887;SDS011;31595;51.418;7.572;2023-04-15T01:03:35;11.65;;;8.57;;
45887;SDS011;31595;51.418;7.572;2023-04-15T01:06:09;14.45;;;8.52;;
45887;SDS011;31595;51.418;7.572;2023-04-15T01:08:40;11.45;;;7.82;;
45887;SDS011;31595;51.418;7.572;2023-04-15T01:11:11;10.32;;;7.95;;
45887;SDS011;31595;51.418;7.572;2023-04-15T01:13:39;11.30;;;7.40;;
45887;SDS011;31595;51.418;7.572;2023-04-15T01:16:07;11.85;;;8.52;;
45887;SDS011;31595;51.418;7.572;2023-04-15T01:18:37;9.18;;;7.35;;
45887;SDS011;31595;51.418;7.572;2023-04-15T01:21:06;10.02;;;7.45;;
45887;SDS011;31595;51.418;7.572;2023-04-15T01:23:36;10.20;;;7.10;;
45887;SDS011;31595;51.418;7.572;2023-04-15T01:26:07;10.20;;;7.30;;
45887;SDS011;31595;51.418;7.572;2023-04-15T01:28:35;9.65;;;7.57;;
45887;SDS011;31595;51.418;7.572;2023-04-15T01:31:06;10.75;;;8.63;;
45887;SDS011;31595;51.418;7.572;2023-04-15T01:33:35;10.25;;;8.70;;
45887;SDS011;31595;51.418;7.572;2023-04-15T01:36:03;13.45;;;9.38;;
45887;SDS011;31595;51.418;7.572;2023-04-15T01:38:32;10.73;;;8.13;;
45887;SDS011;31595;51.418;7.572;2023-04-15T01:41:02;11.20;;;7.05;;
45887;SDS011;31595;51.418;7.572;2023-04-15T01:43:37;9.80;;;6.70;;
45887;SDS011;31595;51.418;7.572;2023-04-15T01:46:06;9.50;;;7.00;;
45887;SDS011;31595;51.418;7.572;2023-04-15T01:48:41;9.75;;;7.47;;
45887;SDS011;31595;51.418;7.572;2023-04-15T01:51:17;11.60;;;7.35;;
45887;SDS011;31595;51.418;7.572;2023-04-15T01:53:54;11.25;;;8.35;;
45887;SDS011;31595;51.418;7.572;2023-04-15T01:56:46;10.95;;;7.70;;
45887;SDS011;31595;51.418;7.572;2023-04-15T01:59:24;9.48;;;7.68;;
45887;SDS011;31595;51.418;7.572;2023-04-15T02:02:00;12.25;;;7.85;;
45887;SDS011;31595;51.418;7.572;2023-04-15T02:04:29;11.00;;;7.20;;
45887;SDS011;31595;51.418;7.572;2023-04-15T02:07:12;10.82;;;7.05;;
45887;SDS011;31595;51.418;7.572;2023-04-15T02:09:51;7.93;;;6.80;;
45887;SDS011;31595;51.418;7.572;2023-04-15T02:12:23;8.68;;;6.88;;
45887;SDS011;31595;51.418;7.572;2023-04-15T02:15:18;8.57;;;6.47;;
45887;SDS011;31595;51.418;7.572;2023-04-15T02:17:55;9.25;;;6.88;;
45887;SDS011;31595;51.418;7.572;2023-04-15T02:20:23;11.10;;;7.00;;
45887;SDS011;31595;51.418;7.572;2023-04-15T02:22:51;10.48;;;7.05;;
45887;SDS011;31595;51.418;7.572;2023-04-15T02:25:24;8.88;;;6.88;;
45887;SDS011;31595;51.418;7.572;2023-04-15T02:27:52;10.45;;;6.43;;
45887;SDS011;31595;51.418;7.572;2023-04-15T02:30:24;10.63;;;7.22;;
45887;SDS011;31595;51.418;7.572;2023-04-15T02:32:54;10.38;;;7.47;;
45887;SDS011;31595;51.418;7.572;2023-04-15T02:35:24;9.63;;;6.88;;
45887;SDS011;31595;51.418;7.572;2023-04-15T02:37:52;12.85;;;8.13;;
45887;SDS011;31595;51.418;7.572;2023-04-15T02:40:20;10.55;;;6.70;;
45887;SDS011;31595;51.418;7.572;2023-04-15T02:42:47;9.25;;;7.03;;
45887;SDS011;31595;51.418;7.572;2023-04-15T02:45:14;8.43;;;6.72;;
45887;SDS011;31595;51.418;7.572;2023-04-15T02:47:49;9.73;;;7.55;;
45887;SDS011;31595;51.418;7.572;2023-04-15T02:50:17;9.55;;;7.30;;
45887;SDS011;31595;51.418;7.572;2023-04-15T02:52:45;10.15;;;7.32;;
45887;SDS011;31595;51.418;7.572;2023-04-15T02:55:16;6.88;;;6.13;;
45887;SDS011;31595;51.418;7.572;2023-04-15T02:57:52;11.15;;;7.53;;
45887;SDS011;31595;51.418;7.572;2023-04-15T03:00:35;11.38;;;7.65;;
45887;SDS011;31595;51.418;7.572;2023-04-15T03:03:07;12.40;;;8.38;;
45887;SDS011;31595;51.418;7.572;2023-04-15T03:05:35;8.95;;;7.25;;
45887;SDS011;31595;51.418;7.572;2023-04-15T03:08:04;10.05;;;7.03;;
45887;SDS011;31595;51.418;7.572;2023-04-15T03:10:32;8.85;;;6.80;;
45887;SDS011;31595;51.418;7.572;2023-04-15T03:13:00;8.32;;;6.45;;
45887;SDS011;31595;51.418;7.572;2023-04-15T03:15:31;12.30;;;7.95;;
45887;SDS011;31595;51.418;7.572;2023-04-15T03:18:08;10.82;;;7.45;;
45887;SDS011;31595;51.418;7.572;2023-04-15T03:20:41;11.98;;;8.52;;
45887;SDS011;31595;51.418;7.572;2023-04-15T03:23:10;11.50;;;8.13;;
45887;SDS011;31595;51.418;7.572;2023-04-15T03:25:38;9.70;;;7.40;;
45887;SDS011;31595;51.418;7.572;2023-04-15T03:28:06;10.25;;;7.55;;
45887;SDS011;31595;51.418;7.572;2023-04-15T03:30:34;11.50;;;8.20;;
45887;SDS011;31595;51.418;7.572;2023-04-15T03:33:01;11.90;;;8.23;;
45887;SDS011;31595;51.418;7.572;2023-04-15T03:35:30;15.20;;;10.05;;
45887;SDS011;31595;51.418;7.572;2023-04-15T03:37:57;9.85;;;7.40;;
45887;SDS011;31595;51.418;7.572;2023-04-15T03:40:24;10.20;;;7.32;;
45887;SDS011;31595;51.418;7.572;2023-04-15T03:42:52;12.55;;;7.82;;
45887;SDS011;31595;51.418;7.572;2023-04-15T03:45:19;10.68;;;7.65;;
45887;SDS011;31595;51.418;7.572;2023-04-15T03:47:46;9.60;;;7.13;;
45887;SDS011;31595;51.418;7.572;2023-04-15T03:50:14;9.32;;;7.22;;
45887;SDS011;31595;51.418;7.572;2023-04-15T03:52:42;10.00;;;7.13;;
45887;SDS011;31595;51.418;7.572;2023-04-15T03:55:10;9.07;;;7.30;;
45887;SDS011;31595;51.418;7.572;2023-04-15T03:57:37;11.50;;;7.65;;
45887;SDS011;31595;51.418;7.572;2023-04-15T04:00:05;9.93;;;6.70;;
45887;SDS011;31595;51.418;7.572;2023-04-15T04:05:01;8.85;;;6.57;;
45887;SDS011;31595;51.418;7.572;2023-04-15T04:07:29;10.48;;;8.25;;
45887;SDS011;31595;51.418;7.572;2023-04-15T04:09:58;12.40;;;9.10;;
45887;SDS011;31595;51.418;7.572;2023-04-15T04:12:25;11.73;;;8.10;;
45887;SDS011;31595;51.418;7.572;2023-04-15T04:14:53;11.05;;;7.85;;
45887;SDS011;31595;51.418;7.572;2023-04-15T04:17:20;11.43;;;8.50;;
45887;SDS011;31595;51.418;7.572;2023-04-15T04:19:47;13.25;;;8.88;;
45887;SDS011;31595;51.418;7.572;2023-04-15T04:22:14;10.15;;;8.45;;
45887;SDS011;31595;51.418;7.572;2023-04-15T04:24:41;12.23;;;8.73;;
45887;SDS011;31595;51.418;7.572;2023-04-15T04:27:10;12.00;;;8.85;;
45887;SDS011;31595;51.418;7.572;2023-04-15T04:29:37;11.60;;;8.50;;
45887;SDS011;31595;51.418;7.572;2023-04-15T04:32:05;10.27;;;7.38;;
45887;SDS011;31595;51.418;7.572;2023-04-15T04:34:33;11.35;;;8.00;;
45887;SDS011;31595;51.418;7.572;2023-04-15T04:37:00;9.88;;;7.47;;
45887;SDS011;31595;51.418;7.572;2023-04-15T04:39:27;9.48;;;7.40;;
45887;SDS011;31595;51.418;7.572;2023-04-15T04:41:54;9.75;;;8.10;;
45887;SDS011;31595;51.418;7.572;2023-04-15T04:44:23;11.30;;;8.10;;
45887;SDS011;31595;51.418;7.572;2023-04-15T04:46:50;11.98;;;9.27;;
45887;SDS011;31595;51.418;7.572;2023-04-15T04:49:18;14.80;;;8.43;;
45887;SDS011;31595;51.418;7.572;2023-04-15T04:51:45;10.60;;;8.13;;
45887;SDS011;31595;51.418;7.572;2023-04-15T04:54:13;10.15;;;7.10;;
45887;SDS011;31595;51.418;7.572;2023-04-15T04:56:40;9.05;;;7.45;;
45887;SDS011;31595;51.418;7.572;2023-04-15T04:59:08;11.52;;;7.50;;
45887;SDS011;31595;51.418;7.572;2023-04-15T05:01:36;13.38;;;8.77;;
45887;SDS011;31595;51.418;7.572;2023-04-15T05:04:04;11.35;;;7.95;;
45887;SDS011;31595;51.418;7.572;2023-04-15T05:06:32;8.98;;;6.95;;
45887;SDS011;31595;51.418;7.572;2023-04-15T05:09:01;11.93;;;7.37;;
45887;SDS011;31595;51.418;7.572;2023-04-15T05:11:28;10.10;;;7.95;;
45887;SDS011;31595;51.418;7.572;2023-04-15T05:13:56;9.82;;;7.72;;
45887;SDS011;31595;51.418;7.572;2023-04-15T05:16:24;8.80;;;6.88;;
45887;SDS011;31595;51.418;7.572;2023-04-15T05:18:52;9.40;;;7.00;;
45887;SDS011;31595;51.418;7.572;2023-04-15T05:21:20;10.65;;;7.95;;
45887;SDS011;31595;51.418;7.572;2023-04-15T05:23:47;9.25;;;7.45;;
45887;SDS011;31595;51.418;7.572;2023-04-15T05:26:14;9.85;;;7.10;;
45887;SDS011;31595;51.418;7.572;2023-04-15T05:28:42;9.88;;;7.40;;
45887;SDS011;31595;51.418;7.572;2023-04-15T05:31:09;11.63;;;8.98;;
45887;SDS011;31595;51.418;7.572;2023-04-15T05:33:36;10.13;;;7.55;;
45887;SDS011;31595;51.418;7.572;2023-04-15T05:36:06;10.63;;;8.43;;
45887;SDS011;31595;51.418;7.572;2023-04-15T05:38:34;11.70;;;8.63;;
45887;SDS011;31595;51.418;7.572;2023-04-15T05:41:02;13.50;;;8.88;;
45887;SDS011;31595;51.418;7.572;2023-04-15T05:43:29;12.85;;;8.60;;
45887;SDS011;31595;51.418;7.572;2023-04-15T05:45:56;11.05;;;9.15;;
45887;SDS011;31595;51.418;7.572;2023-04-15T05:48:24;11.68;;;8.68;;
45887;SDS011;31595;51.418;7.572;2023-04-15T05:50:51;13.57;;;9.68;;
45887;SDS011;31595;51.418;7.572;2023-04-15T05:53:20;14.52;;;8.98;;
45887;SDS011;31595;51.418;7.572;2023-04-15T05:55:47;11.82;;;9.38;;
45887;SDS011;31595;51.418;7.572;2023-04-15T05:58:15;12.85;;;9.27;;
45887;SDS011;31595;51.418;7.572;2023-04-15T06:00:42;11.95;;;9.07;;
45887;SDS011;31595;51.418;7.572;2023-04-15T06:03:10;11.73;;;8.43;;
45887;SDS011;31595;51.418;7.572;2023-04-15T06:05:38;13.20;;;9.40;;
45887;SDS011;31595;51.418;7.572;2023-04-15T06:08:05;12.00;;;9.45;;
45887;SDS011;31595;51.418;7.572;2023-04-15T06:10:35;11.48;;;8.70;;
45887;SDS011;31595;51.418;7.572;2023-04-15T06:13:02;13.85;;;10.45;;
45887;SDS011;31595;51.418;7.572;2023-04-15T06:15:29;12.13;;;9.95;;
45887;SDS011;31595;51.418;7.572;2023-04-15T06:17:57;13.00;;;9.40;;
45887;SDS011;31595;51.418;7.572;2023-04-15T06:20:24;11.52;;;9.05;;
45887;SDS011;31595;51.418;7.572;2023-04-15T06:22:52;12.05;;;9.52;;
45887;SDS011;31595;51.418;7.572;2023-04-15T06:25:19;14.30;;;10.02;;
45887;SDS011;31595;51.418;7.572;2023-04-15T06:27:48;11.23;;;8.30;;
45887;SDS011;31595;51.418;7.572;2023-04-15T06:30:15;10.77;;;8.40;;
45887;SDS011;31595;51.418;7.572;2023-04-15T06:32:43;10.48;;;8.00;;
45887;SDS011;31595;51.418;7.572;2023-04-15T06:35:10;11.85;;;8.18;;
45887;SDS011;31595;51.418;7.572;2023-04-15T06:37:38;10.63;;;8.80;;
45887;SDS011;31595;51.418;7.572;2023-04-15T06:40:05;11.45;;;8.75;;
45887;SDS011;31595;51.418;7.572;2023-04-15T06:42:34;9.57;;;8.40;;
45887;SDS011;31595;51.418;7.572;2023-04-15T06:45:04;11.90;;;8.85;;
45887;SDS011;31595;51.418;7.572;2023-04-15T06:47:33;11.98;;;9.25;;
45887;SDS011;31595;51.418;7.572;2023-04-15T06:50:00;14.55;;;11.32;;
45887;SDS011;31595;51.418;7.572;2023-04-15T06:52:28;14.52;;;12.02;;
45887;SDS011;31595;51.418;7.572;2023-04-15T06:54:56;12.55;;;10.70;;
45887;SDS011;31595;51.418;7.572;2023-04-15T06:57:24;13.57;;;10.23;;
45887;SDS011;31595;51.418;7.572;2023-04-15T06:59:51;13.05;;;10.38;;
45887;SDS011;31595;51.418;7.572;2023-04-15T07:02:20;10.80;;;9.65;;
45887;SDS011;31595;51.418;7.572;2023-04-15T07:04:48;11.00;;;8.82;;
45887;SDS011;31595;51.418;7.572;2023-04-15T07:07:15;10.50;;;8.35;;
45887;SDS011;31595;51.418;7.572;2023-04-15T07:09:43;12.23;;;9.45;;
45887;SDS011;31595;51.418;7.572;2023-04-15T07:12:10;10.90;;;9.20;;
45887;SDS011;31595;51.418;7.572;2023-04-15T07:14:37;13.43;;;9.77;;
45887;SDS011;31595;51.418;7.572;2023-04-15T07:17:04;11.07;;;9.25;;
45887;SDS011;31595;51.418;7.572;2023-04-15T07:19:33;13.23;;;9.75;;
45887;SDS011;31595;51.418;7.572;2023-04-15T07:22:01;12.50;;;9.15;;
45887;SDS011;31595;51.418;7.572;2023-04-15T07:24:28;10.23;;;8.85;;
45887;SDS011;31595;51.418;7.572;2023-04-15T07:26:55;11.43;;;9.80;;
45887;SDS011;31595;51.418;7.572;2023-04-15T07:29:23;11.98;;;9.30;;
45887;SDS011;31595;51.418;7.572;2023-04-15T07:31:51;10.75;;;9.38;;
45887;SDS011;31595;51.418;7.572;2023-04-15T07:34:19;13.43;;;9.40;;
45887;SDS011;31595;51.418;7.572;2023-04-15T07:36:47;14.05;;;11.00;;
45887;SDS011;31595;51.418;7.572;2023-04-15T07:39:16;12.45;;;10.07;;
45887;SDS011;31595;51.418;7.572;2023-04-15T07:41:43;14.43;;;10.80;;
45887;SDS011;31595;51.418;7.572;2023-04-15T07:44:11;12.88;;;10.07;;
45887;SDS011;31595;51.418;7.572;2023-04-15T07:46:38;10.95;;;9.52;;
45887;SDS011;31595;51.418;7.572;2023-04-15T07:49:05;13.18;;;10.52;;
45887;SDS011;31595;51.418;7.572;2023-04-15T07:51:33;12.07;;;10.00;;
45887;SDS011;31595;51.418;7.572;2023-04-15T07:54:02;14.07;;;10.52;;
45887;SDS011;31595;51.418;7.572;2023-04-15T07:56:29;11.70;;;10.43;;
45887;SDS011;31595;51.418;7.572;2023-04-15T07:58:57;12.52;;;9.63;;
45887;SDS011;31595;51.418;7.572;2023-04-15T08:01:26;11.25;;;9.90;;
45887;SDS011;31595;51.418;7.572;2023-04-15T08:03:53;12.57;;;9.75;;
45887;SDS011;31595;51.418;7.572;2023-04-15T08:06:27;13.02;;;9.45;;
45887;SDS011;31595;51.418;7.572;2023-04-15T08:08:58;10.90;;;9.80;;
45887;SDS011;31595;51.418;7.572;2023-04-15T08:11:26;11.32;;;9.63;;
45887;SDS011;31595;51.418;7.572;2023-04-15T08:13:54;11.85;;;9.95;;
45887;SDS011;31595;51.418;7.572;2023-04-15T08:16:21;13.25;;;10.23;;
45887;SDS011;31595;51.418;7.572;2023-04-15T08:18:51;10.52;;;9.30;;
45887;SDS011;31595;51.418;7.572;2023-04-15T08:21:19;10.98;;;9.43;;
45887;SDS011;31595;51.418;7.572;2023-04-15T08:23:48;10.70;;;9.00;;
45887;SDS011;31595;51.418;7.572;2023-04-15T08:28:45;12.88;;;10.18;;
45887;SDS011;31595;51.418;7.572;2023-04-15T08:31:13;9.10;;;8.20;;
45887;SDS011;31595;51.418;7.572;2023-04-15T08:33:41;9.00;;;8.10;;
45887;SDS011;31595;51.418;7.572;2023-04-15T08:36:09;8.85;;;7.88;;
45887;SDS011;31595;51.418;7.572;2023-04-15T08:38:36;11.60;;;8.95;;
45887;SDS011;31595;51.418;7.572;2023-04-15T08:41:06;9.27;;;8.38;;
45887;SDS011;31595;51.418;7.572;2023-04-15T08:43:38;9.50;;;8.50;;
45887;SDS011;31595;51.418;7.572;2023-04-15T08:46:14;10.35;;;7.90;;
45887;SDS011;31595;51.418;7.572;2023-04-15T08:48:42;9.32;;;7.90;;
45887;SDS011;31595;51.418;7.572;2023-04-15T08:51:10;9.10;;;7.63;;
45887;SDS011;31595;51.418;7.572;2023-04-15T08:53:40;8.93;;;8.02;;
45887;SDS011;31595;51.418;7.572;2023-04-15T08:56:08;9.07;;;7.65;;
45887;SDS011;31595;51.418;7.572;2023-04-15T08:58:38;9.15;;;8.25;;
45887;SDS011;31595;51.418;7.572;2023-04-15T09:01:05;9.93;;;8.32;;
45887;SDS011;31595;51.418;7.572;2023-04-15T09:03:34;8.85;;;7.30;;
45887;SDS011;31595;51.418;7.572;2023-04-15T09:06:03;9.13;;;7.78;;
45887;SDS011;31595;51.418;7.572;2023-04-15T09:08:30;7.82;;;6.40;;
45887;SDS011;31595;51.418;7.572;2023-04-15T09:10:59;9.25;;;7.13;;
45887;SDS011;31595;51.418;7.572;2023-04-15T09:13:29;10.82;;;7.38;;
45887;SDS011;31595;51.418;7.572;2023-04-15T09:15:57;7.93;;;6.82;;
45887;SDS011;31595;51.418;7.572;2023-04-15T09:18:27;7.68;;;6.80;;
45887;SDS011;31595;51.418;7.572;2023-04-15T09:20:57;10.15;;;7.00;;
45887;SDS011;31595;51.418;7.572;2023-04-15T09:23:31;8.07;;;6.50;;
45887;SDS011;31595;51.418;7.572;2023-04-15T09:25:59;7.75;;;6.93;;
45887;SDS011;31595;51.418;7.572;2023-04-15T09:28:27;7.65;;;6.80;;
45887;SDS011;31595;51.418;7.572;2023-04-15T09:30:55;7.95;;;6.95;;
45887;SDS011;31595;51.418;7.572;2023-04-15T09:33:23;8.35;;;7.10;;
45887;SDS011;31595;51.418;7.572;2023-04-15T09:35:59;7.65;;;6.68;;
45887;SDS011;31595;51.418;7.572;2023-04-15T09:38:28;7.68;;;6.55;;
45887;SDS011;31595;51.418;7.572;2023-04-15T09:40:55;7.75;;;6.95;;
45887;SDS011;31595;51.418;7.572;2023-04-15T09:43:26;7.43;;;6.72;;
45887;SDS011;31595;51.418;7.572;2023-04-15T09:46:03;8.15;;;6.82;;
45887;SDS011;31595;51.418;7.572;2023-04-15T09:48:33;8.45;;;7.55;;
45887;SDS011;31595;51.418;7.572;2023-04-15T09:51:02;7.80;;;7.00;;
45887;SDS011;31595;51.418;7.572;2023-04-15T09:53:31;9.48;;;8.25;;
45887;SDS011;31595;51.418;7.572;2023-04-15T09:56:00;8.70;;;7.90;;
45887;SDS011;31595;51.418;7.572;2023-04-15T09:58:28;9.13;;;8.18;;
45887;SDS011;31595;51.418;7.572;2023-04-15T10:01:01;8.55;;;7.72;;
45887;SDS011;31595;51.418;7.572;2023-04-15T10:03:29;9.32;;;7.57;;
45887;SDS011;31595;51.418;7.572;2023-04-15T10:05:59;8.60;;;7.70;;
45887;SDS011;31595;51.418;7.572;2023-04-15T10:08:32;9.10;;;8.15;;
45887;SDS011;31595;51.418;7.572;2023-04-15T10:11:00;8.63;;;7.72;;
45887;SDS011;31595;51.418;7.572;2023-04-15T10:13:29;9.40;;;7.63;;
45887;SDS011;31595;51.418;7.572;2023-04-15T10:16:03;10.20;;;8.60;;
45887;SDS011;31595;51.418;7.572;2023-04-15T10:18:33;9.00;;;7.70;;
45887;SDS011;31595;51.418;7.572;2023-04-15T10:21:01;9.43;;;7.97;;
45887;SDS011;31595;51.418;7.572;2023-04-15T10:23:30;9.48;;;8.18;;
45887;SDS011;31595;51.418;7.572;2023-04-15T10:25:59;8.70;;;7.80;;
45887;SDS011;31595;51.418;7.572;2023-04-15T10:28:26;8.43;;;7.63;;
45887;SDS011;31595;51.418;7.572;2023-04-15T10:30:54;8.35;;;7.47;;
45887;SDS011;31595;51.418;7.572;2023-04-15T10:33:23;8.48;;;7.68;;
45887;SDS011;31595;51.418;7.572;2023-04-15T10:35:51;8.37;;;7.03;;
45887;SDS011;31595;51.418;7.572;2023-04-15T10:38:32;8.30;;;6.88;;
45887;SDS011;31595;51.418;7.572;2023-04-15T10:43:51;8.63;;;6.78;;
45887;SDS011;31595;51.418;7.572;2023-04-15T10:46:22;7.25;;;5.93;;
45887;SDS011;31595;51.418;7.572;2023-04-15T10:48:50;7.55;;;5.95;;
45887;SDS011;31595;51.418;7.572;2023-04-15T10:51:29;6.90;;;5.97;;
45887;SDS011;31595;51.418;7.572;2023-04-15T10:53:59;6.22;;;5.35;;
45887;SDS011;31595;51.418;7.572;2023-04-15T10:56:27;7.97;;;6.63;;
45887;SDS011;31595;51.418;7.572;2023-04-15T10:58:57;7.15;;;6.45;;
45887;SDS011;31595;51.418;7.572;2023-04-15T11:13:06;9.75;;;7.57;;
45887;SDS011;31595;51.418;7.572;2023-04-15T11:15:41;8.45;;;6.85;;
45887;SDS011;31595;51.418;7.572;2023-04-15T11:18:10;7.90;;;7.07;;
45887;SDS011;31595;51.418;7.572;2023-04-15T11:20:39;7.03;;;6.33;;
45887;SDS011;31595;51.418;7.572;2023-04-15T11:23:09;7.80;;;6.47;;
45887;SDS011;31595;51.418;7.572;2023-04-15T11:25:37;11.00;;;9.43;;
45887;SDS011;31595;51.418;7.572;2023-04-15T11:28:05;13.82;;;12.32;;
45887;SDS011;31595;51.418;7.572;2023-04-15T11:30:34;16.15;;;14.18;;
45887;SDS011;31595;51.418;7.572;2023-04-15T11:33:02;13.30;;;11.93;;
45887;SDS011;31595;51.418;7.572;2023-04-15T11:35:30;11.90;;;10.70;;
45887;SDS011;31595;51.418;7.572;2023-04-15T11:37:58;10.85;;;9.13;;
45887;SDS011;31595;51.418;7.572;2023-04-15T11:40:30;8.07;;;6.95;;
45887;SDS011;31595;51.418;7.572;2023-04-15T11:43:03;9.05;;;6.85;;
45887;SDS011;31595;51.418;7.572;2023-04-15T11:45:33;8.52;;;6.93;;
45887;SDS011;31595;51.418;7.572;2023-04-15T11:48:06;8.02;;;6.60;;
45887;SDS011;31595;51.418;7.572;2023-04-15T11:50:35;9.27;;;8.20;;
45887;SDS011;31595;51.418;7.572;2023-04-15T11:53:05;8.57;;;7.68;;
45887;SDS011;31595;51.418;7.572;2023-04-15T11:55:40;10.35;;;8.18;;
45887;SDS011;31595;51.418;7.572;2023-04-15T11:58:11;8.82;;;7.93;;
45887;SDS011;31595;51.418;7.572;2023-04-15T12:00:39;10.07;;;8.80;;
45887;SDS011;31595;51.418;7.572;2023-04-15T12:03:10;12.35;;;9.43;;
45887;SDS011;31595;51.418;7.572;2023-04-15T12:08:50;11.07;;;9.35;;
45887;SDS011;31595;51.418;7.572;2023-04-15T12:11:20;10.82;;;9.23;;
45887;SDS011;31595;51.418;7.572;2023-04-15T12:13:56;10.02;;;8.15;;
45887;SDS011;31595;51.418;7.572;2023-04-15T12:16:24;9.27;;;7.97;;
45887;SDS011;31595;51.418;7.572;2023-04-15T12:18:53;8.82;;;7.55;;
45887;SDS011;31595;51.418;7.572;2023-04-15T12:21:22;8.77;;;7.35;;
45887;SDS011;31595;51.418;7.572;2023-04-15T12:23:52;8.23;;;6.93;;
45887;SDS011;31595;51.418;7.572;2023-04-15T12:26:24;10.40;;;8.60;;
45887;SDS011;31595;51.418;7.572;2023-04-15T12:28:53;9.68;;;7.80;;
45887;SDS011;31595;51.418;7.572;2023-04-15T12:31:22;7.18;;;5.93;;
45887;SDS011;31595;51.418;7.572;2023-04-15T12:33:49;7.03;;;6.25;;
45887;SDS011;31595;51.418;7.572;2023-04-15T12:36:17;8.02;;;6.75;;
45887;SDS011;31595;51.418;7.572;2023-04-15T12:38:44;8.73;;;6.90;;
45887;SDS011;31595;51.418;7.572;2023-04-15T12:41:11;7.93;;;6.60;;
45887;SDS011;31595;51.418;7.572;2023-04-15T12:43:39;8.45;;;6.70;;
45887;SDS011;31595;51.418;7.572;2023-04-15T12:46:06;7.82;;;7.03;;
45887;SDS011;31595;51.418;7.572;2023-04-15T12:48:36;8.25;;;6.88;;
45887;SDS011;31595;51.418;7.572;2023-04-15T12:51:03;9.00;;;6.25;;
45887;SDS011;31595;51.418;7.572;2023-04-15T12:53:30;7.43;;;5.90;;
45887;SDS011;31595;51.418;7.572;2023-04-15T12:55:58;7.20;;;6.40;;
45887;SDS011;31595;51.418;7.572;2023-04-15T12:58:26;6.95;;;6.05;;
45887;SDS011;31595;51.418;7.572;2023-04-15T13:00:53;6.88;;;5.43;;
45887;SDS011;31595;51.418;7.572;2023-04-15T13:03:21;6.85;;;6.10;;
45887;SDS011;31595;51.418;7.572;2023-04-15T13:05:50;7.32;;;5.75;;
45887;SDS011;31595;51.418;7.572;2023-04-15T13:08:17;6.95;;;6.13;;
45887;SDS011;31595;51.418;7.572;2023-04-15T13:10:45;7.53;;;5.90;;
45887;SDS011;31595;51.418;7.572;2023-04-15T13:13:12;6.50;;;5.85;;
45887;SDS011;31595;51.418;7.572;2023-04-15T13:15:40;6.75;;;5.95;;
45887;SDS011;31595;51.418;7.572;2023-04-15T13:18:10;7.25;;;6.47;;
45887;SDS011;31595;51.418;7.572;2023-04-15T13:20:37;7.68;;;6.88;;
45887;SDS011;31595;51.418;7.572;2023-04-15T13:23:07;6.60;;;6.00;;
45887;SDS011;31595;51.418;7.572;2023-04-15T13:25:35;7.20;;;6.13;;
45887;SDS011;31595;51.418;7.572;2023-04-15T13:28:02;6.72;;;5.80;;
45887;SDS011;31595;51.418;7.572;2023-04-15T13:30:30;6.57;;;5.90;;
45887;SDS011;31595;51.418;7.572;2023-04-15T13:32:57;7.03;;;5.93;;
45887;SDS011;31595;51.418;7.572;2023-04-15T13:35:24;8.48;;;7.00;;
45887;SDS011;31595;51.418;7.572;2023-04-15T13:37:52;7.22;;;6.43;;
45887;SDS011;31595;51.418;7.572;2023-04-15T13:40:22;10.38;;;9.27;;
45887;SDS011;31595;51.418;7.572;2023-04-15T13:42:49;7.90;;;7.10;;
45887;SDS011;31595;51.418;7.572;2023-04-15T13:45:17;7.68;;;6.22;;
45887;SDS011;31595;51.418;7.572;2023-04-15T13:47:45;8.80;;;6.82;;
45887;SDS011;31595;51.418;7.572;2023-04-15T13:50:12;7.55;;;6.72;;
45887;SDS011;31595;51.418;7.572;2023-04-15T13:52:39;6.15;;;5.18;;
45887;SDS011;31595;51.418;7.572;2023-04-15T13:55:07;8.13;;;6.63;;
45887;SDS011;31595;51.418;7.572;2023-04-15T13:57:36;6.60;;;5.75;;
45887;SDS011;31595;51.418;7.572;2023-04-15T14:00:04;7.53;;;6.10;;
45887;SDS011;31595;51.418;7.572;2023-04-15T14:02:32;7.20;;;5.88;;
45887;SDS011;31595;51.418;7.572;2023-04-15T14:05:00;5.55;;;4.95;;
45887;SDS011;31595;51.418;7.572;2023-04-15T14:07:28;6.35;;;5.57;;
45887;SDS011;31595;51.418;7.572;2023-04-15T14:09:55;7.22;;;5.90;;
45887;SDS011;31595;51.418;7.572;2023-04-15T14:12:23;5.68;;;4.60;;
45887;SDS011;31595;51.418;7.572;2023-04-15T14:14:51;6.15;;;5.20;;
45887;SDS011;31595;51.418;7.572;2023-04-15T14:17:19;6.45;;;5.38;;
45887;SDS011;31595;51.418;7.572;2023-04-15T14:19:46;5.97;;;4.85;;
45887;SDS011;31595;51.418;7.572;2023-04-15T14:22:13;5.93;;;5.28;;
45887;SDS011;31595;51.418;7.572;2023-04-15T14:24:41;6.72;;;5.10;;
45887;SDS011;31595;51.418;7.572;2023-04-15T14:27:09;7.78;;;5.97;;
45887;SDS011;31595;51.418;7.572;2023-04-15T14:29:37;6.68;;;5.97;;
45887;SDS011;31595;51.418;7.572;2023-04-15T14:32:06;5.43;;;4.60;;
45887;SDS011;31595;51.418;7.572;2023-04-15T14:34:33;5.93;;;4.60;;
45887;SDS011;31595;51.418;7.572;2023-04-15T14:37:01;5.55;;;4.90;;
45887;SDS011;31595;51.418;7.572;2023-04-15T14:39:28;5.85;;;5.20;;
45887;SDS011;31595;51.418;7.572;2023-04-15T14:41:56;6.22;;;5.07;;
45887;SDS011;31595;51.418;7.572;2023-04-15T14:44:23;6.65;;;5.40;;
45887;SDS011;31595;51.418;7.572;2023-04-15T14:46:50;6.63;;;5.50;;
45887;SDS011;31595;51.418;7.572;2023-04-15T14:49:19;4.88;;;4.15;;
45887;SDS011;31595;51.418;7.572;2023-04-15T14:51:47;6.18;;;5.05;;
45887;SDS011;31595;51.418;7.572;2023-04-15T14:54:14;5.45;;;4.25;;
45887;SDS011;31595;51.418;7.572;2023-04-15T14:56:42;5.80;;;5.05;;
45887;SDS011;31595;51.418;7.572;2023-04-15T14:59:09;5.53;;;4.07;;
45887;SDS011;31595;51.418;7.572;2023-04-15T15:01:36;5.88;;;3.97;;
45887;SDS011;31595;51.418;7.572;2023-04-15T15:04:04;4.40;;;3.42;;
45887;SDS011;31595;51.418;7.572;2023-04-15T15:06:32;4.47;;;3.60;;
45887;SDS011;31595;51.418;7.572;2023-04-15T15:09:00;6.80;;;4.03;;
45887;SDS011;31595;51.418;7.572;2023-04-15T15:11:27;6.13;;;4.20;;
45887;SDS011;31595;51.418;7.572;2023-04-15T15:13:55;5.40;;;4.28;;